createdAt,value
2019-03-27T00:01:26.316Z,59.50
2019-03-27T00:04:03.240Z,59.10
2019-03-27T00:06:41.947Z,58.70
2019-03-27T00:09:21.652Z,58.70
2019-03-27T00:11:56.067Z,59.50
2019-03-27T00:14:32.434Z,59.30
2019-03-27T00:17:08.159Z,59.10
2019-03-27T00:19:42.963Z,59.10
2019-03-27T00:22:21.252Z,58.70
2019-03-27T00:24:56.590Z,58.30
2019-03-27T00:27:33.526Z,58.90
2019-03-27T00:30:08.208Z,58.40
2019-03-27T00:32:43.760Z,59.00
2019-03-27T00:35:18.243Z,59.10
2019-03-27T00:37:53.927Z,58.80
2019-03-27T00:40:31.165Z,58.70
2019-03-27T00:43:06.080Z,58.90
2019-03-27T00:45:40.246Z,59.50
2019-03-27T00:48:16.130Z,60.40
2019-03-27T00:50:51.283Z,60.30
2019-03-27T00:53:26.159Z,59.50
2019-03-27T00:56:00.828Z,58.10
2019-03-27T00:58:35.400Z,57.10
2019-03-27T01:01:20.442Z,57.90
2019-03-27T01:03:54.961Z,58.80
2019-03-27T01:06:31.010Z,59.70
2019-03-27T01:09:06.019Z,59.80
2019-03-27T01:11:40.752Z,61.60
2019-03-27T01:14:17.644Z,62.80
2019-03-27T01:16:52.070Z,63.90
2019-03-27T01:19:28.575Z,64.80
2019-03-27T01:22:03.365Z,65.10
2019-03-27T01:24:39.867Z,65.70
2019-03-27T01:27:14.466Z,66.10
2019-03-27T01:29:48.807Z,66.00
2019-03-27T01:32:26.483Z,66.10
2019-03-27T01:35:04.253Z,65.90
2019-03-27T01:37:39.714Z,65.30
2019-03-27T01:40:14.193Z,65.70
2019-03-27T01:42:48.460Z,65.20
2019-03-27T01:45:23.319Z,63.00
2019-03-27T01:47:57.591Z,63.70
2019-03-27T01:50:32.962Z,61.40
2019-03-27T01:53:07.778Z,61.40
2019-03-27T01:55:42.081Z,61.10
2019-03-27T01:58:16.314Z,61.00
2019-03-27T02:00:50.328Z,61.40
2019-03-27T02:03:25.120Z,61.80
2019-03-27T02:06:00.279Z,61.50
2019-03-27T02:08:40.433Z,61.20
2019-03-27T02:11:18.766Z,61.00
2019-03-27T02:13:53.523Z,61.00
2019-03-27T02:16:46.950Z,61.30
2019-03-27T02:19:21.527Z,60.60
2019-03-27T02:21:55.935Z,59.70
2019-03-27T02:24:32.583Z,60.40
2019-03-27T02:27:09.556Z,60.40
2019-03-27T02:29:45.230Z,59.80
2019-03-27T02:32:22.106Z,60.40
2019-03-27T02:34:57.516Z,61.90
2019-03-27T02:37:32.632Z,62.40
2019-03-27T02:40:07.895Z,62.90
2019-03-27T02:42:43.879Z,63.90
2019-03-27T02:45:18.482Z,66.10
2019-03-27T02:47:54.885Z,66.60
2019-03-27T02:50:29.462Z,67.30
2019-03-27T02:53:04.253Z,67.40
2019-03-27T02:55:40.375Z,67.20
2019-03-27T02:58:15.015Z,67.20
2019-03-27T03:00:52.322Z,67.10
2019-03-27T03:03:26.708Z,67.00
2019-03-27T03:06:01.148Z,66.20
2019-03-27T03:08:35.544Z,66.90
2019-03-27T03:11:11.243Z,67.00
2019-03-27T03:13:45.487Z,66.50
2019-03-27T03:16:20.954Z,62.90
2019-03-27T03:18:55.462Z,61.20
2019-03-27T03:21:30.445Z,60.80
2019-03-27T03:24:07.303Z,60.50
2019-03-27T03:26:44.494Z,60.90
2019-03-27T03:29:20.702Z,61.60
2019-03-27T03:31:56.034Z,60.70
2019-03-27T03:34:31.201Z,60.60
2019-03-27T03:37:06.893Z,60.90
2019-03-27T03:39:41.612Z,61.30
2019-03-27T03:42:16.414Z,60.10
2019-03-27T03:44:51.172Z,60.60
2019-03-27T03:47:27.689Z,60.80
2019-03-27T03:50:02.217Z,60.90
2019-03-27T03:52:36.877Z,61.30
2019-03-27T03:55:15.582Z,61.60
2019-03-27T03:57:53.922Z,62.00
2019-03-27T04:00:30.806Z,62.50
2019-03-27T04:03:07.877Z,63.80
2019-03-27T04:05:46.294Z,64.60
2019-03-27T04:08:22.935Z,65.50
2019-03-27T04:10:56.885Z,66.20
2019-03-27T04:13:33.034Z,66.90
2019-03-27T04:16:07.026Z,67.10
2019-03-27T04:18:42.572Z,67.30
2019-03-27T04:21:21.176Z,67.60
2019-03-27T04:23:55.299Z,68.10
2019-03-27T04:26:33.409Z,68.90
2019-03-27T04:29:07.225Z,69.10
2019-03-27T04:31:42.575Z,69.80
2019-03-27T04:34:20.370Z,70.10
2019-03-27T04:36:55.852Z,69.60
2019-03-27T04:39:32.540Z,69.70
2019-03-27T04:42:07.373Z,69.10
2019-03-27T04:44:41.995Z,69.00
2019-03-27T04:47:31.530Z,69.50
2019-03-27T04:49:53.772Z,70.20
2019-03-27T04:52:27.987Z,69.30
2019-03-27T04:55:02.277Z,68.50
2019-03-27T04:57:37.489Z,68.00
2019-03-27T05:00:13.048Z,68.70
2019-03-27T05:02:47.511Z,69.60
2019-03-27T05:05:23.566Z,71.30
2019-03-27T05:07:58.407Z,73.10
2019-03-27T05:10:33.039Z,73.50
2019-03-27T05:13:08.416Z,73.40
2019-03-27T05:15:44.146Z,73.60
2019-03-27T05:18:18.352Z,73.80
2019-03-27T05:20:54.107Z,72.70
2019-03-27T05:23:29.024Z,71.50
2019-03-27T05:26:04.841Z,71.00
2019-03-27T05:28:39.914Z,70.80
2019-03-27T05:31:15.667Z,71.70
2019-03-27T05:33:55.792Z,72.30
2019-03-27T05:36:31.868Z,72.40
2019-03-27T05:39:14.429Z,73.10
2019-03-27T05:41:47.565Z,73.30
2019-03-27T05:44:24.869Z,73.20
2019-03-27T05:46:59.783Z,73.80
2019-03-27T05:49:34.509Z,73.90
2019-03-27T05:52:09.884Z,74.10
2019-03-27T05:54:45.921Z,73.00
2019-03-27T05:57:23.658Z,73.10
2019-03-27T05:59:58.362Z,72.80
2019-03-27T06:02:34.452Z,72.80
2019-03-27T06:05:10.006Z,73.30
2019-03-27T06:07:44.806Z,72.70
2019-03-27T06:10:21.963Z,72.10
2019-03-27T06:12:57.447Z,72.40
2019-03-27T06:15:34.303Z,71.10
2019-03-27T06:18:13.415Z,70.80
2019-03-27T06:20:46.957Z,70.60
2019-03-27T06:23:21.432Z,69.00
2019-03-27T06:25:58.637Z,68.50
2019-03-27T06:28:34.418Z,67.80
2019-03-27T06:31:09.396Z,66.90
2019-03-27T06:33:45.847Z,66.80
2019-03-27T06:36:26.625Z,66.10
2019-03-27T06:39:06.905Z,65.50
2019-03-27T06:41:41.635Z,65.30
2019-03-27T06:44:17.523Z,63.30
2019-03-27T06:47:05.342Z,61.70
2019-03-27T06:49:40.523Z,60.80
2019-03-27T06:52:15.581Z,60.20
2019-03-27T06:54:51.114Z,59.90
2019-03-27T06:57:27.307Z,59.30
2019-03-27T07:00:02.349Z,59.10
2019-03-27T07:02:39.716Z,58.50
2019-03-27T07:05:22.153Z,58.10
2019-03-27T07:07:58.726Z,58.10
2019-03-27T07:10:35.004Z,57.30
2019-03-27T07:13:11.320Z,56.50
2019-03-27T07:15:45.788Z,56.50
2019-03-27T07:18:23.275Z,55.90
2019-03-27T07:21:03.878Z,55.90
2019-03-27T07:23:38.933Z,56.40
2019-03-27T07:26:12.172Z,55.80
2019-03-27T07:28:47.539Z,55.30
2019-03-27T07:31:22.738Z,55.00
2019-03-27T07:33:58.739Z,55.10
2019-03-27T07:36:35.903Z,55.10
2019-03-27T07:39:23.002Z,55.10
2019-03-27T07:42:00.637Z,55.20
2019-03-27T07:44:39.114Z,54.60
2019-03-27T07:47:15.885Z,54.60
2019-03-27T07:49:50.972Z,54.70
2019-03-27T07:52:28.512Z,54.90
2019-03-27T07:55:19.680Z,54.60
2019-03-27T07:57:52.383Z,54.50
2019-03-27T08:00:31.852Z,54.40
2019-03-27T08:03:08.389Z,54.10
2019-03-27T08:05:48.345Z,54.20
2019-03-27T08:08:31.774Z,54.50
2019-03-27T08:11:08.316Z,55.20
2019-03-27T08:13:46.788Z,54.50
2019-03-27T08:16:22.344Z,54.60
2019-03-27T08:19:07.460Z,55.00
2019-03-27T08:21:35.377Z,54.80
2019-03-27T08:24:11.996Z,54.90
2019-03-27T08:26:46.365Z,55.10
2019-03-27T08:29:19.642Z,54.60
2019-03-27T08:31:59.019Z,54.50
2019-03-27T08:34:35.859Z,54.60
2019-03-27T08:37:12.424Z,54.80
2019-03-27T08:39:48.367Z,55.10
2019-03-27T08:42:25.773Z,54.90
2019-03-27T08:45:08.328Z,54.30
2019-03-27T08:47:49.717Z,54.10
2019-03-27T08:50:26.648Z,53.90
2019-03-27T08:53:04.032Z,53.70
2019-03-27T08:55:52.823Z,54.10
2019-03-27T08:58:30.143Z,53.80
2019-03-27T09:01:10.761Z,53.70
2019-03-27T09:03:51.121Z,53.60
2019-03-27T09:06:34.125Z,53.70
2019-03-27T09:09:12.003Z,53.60
2019-03-27T09:11:49.575Z,53.40
2019-03-27T09:14:27.779Z,52.80
2019-03-27T09:17:03.113Z,52.60
2019-03-27T09:19:37.722Z,53.20
2019-03-27T09:22:14.444Z,52.60
2019-03-27T09:24:50.242Z,52.70
2019-03-27T09:27:28.147Z,52.00
2019-03-27T09:30:02.341Z,51.80
2019-03-27T09:32:36.295Z,52.40
2019-03-27T09:35:10.574Z,51.60
2019-03-27T09:37:47.561Z,51.80
2019-03-27T09:40:24.643Z,51.40
2019-03-27T09:43:00.891Z,51.70
2019-03-27T09:45:36.871Z,51.70
2019-03-27T09:48:13.362Z,51.20
2019-03-27T09:50:49.864Z,51.60
2019-03-27T09:53:24.783Z,51.00
2019-03-27T09:55:59.339Z,51.30
2019-03-27T09:58:36.210Z,51.50
2019-03-27T10:01:12.157Z,51.00
2019-03-27T10:03:47.459Z,50.20
2019-03-27T10:06:27.711Z,49.90
2019-03-27T10:09:04.869Z,50.50
2019-03-27T10:11:40.545Z,49.60
2019-03-27T10:14:15.924Z,49.50
2019-03-27T10:16:49.395Z,49.80
2019-03-27T10:19:25.441Z,49.50
2019-03-27T10:22:00.046Z,49.90
2019-03-27T10:24:44.997Z,49.80
2019-03-27T10:27:42.016Z,49.90
2019-03-27T10:30:25.510Z,50.20
2019-03-27T10:33:07.365Z,50.30
2019-03-27T10:35:50.888Z,50.30
2019-03-27T10:38:31.980Z,50.50
2019-03-27T10:41:07.569Z,50.20
2019-03-27T10:43:44.643Z,50.00
2019-03-27T10:46:21.224Z,50.00
2019-03-27T10:48:58.327Z,50.00
2019-03-27T10:51:38.319Z,49.90
2019-03-27T10:54:18.191Z,49.50
2019-03-27T10:56:53.610Z,48.80
2019-03-27T10:59:34.413Z,48.70
2019-03-27T11:02:12.511Z,48.20
2019-03-27T11:04:49.576Z,47.80
2019-03-27T11:07:26.697Z,48.10
2019-03-27T11:10:27.147Z,48.30
2019-03-27T11:13:03.654Z,48.00
2019-03-27T11:15:39.798Z,47.70
2019-03-27T11:18:14.446Z,48.10
2019-03-27T11:20:48.410Z,47.70
2019-03-27T11:23:23.771Z,47.50
2019-03-27T11:26:02.976Z,47.90
2019-03-27T11:28:40.696Z,47.70
2019-03-27T11:31:16.596Z,47.70
2019-03-27T11:33:56.692Z,48.20
2019-03-27T11:36:35.125Z,48.30
2019-03-27T11:39:14.983Z,47.90
2019-03-27T11:41:50.832Z,47.70
2019-03-27T11:44:25.390Z,48.10
2019-03-27T11:46:59.801Z,47.70
2019-03-27T11:49:35.362Z,47.00
2019-03-27T11:52:20.340Z,47.10
2019-03-27T11:54:57.486Z,47.10
2019-03-27T11:57:31.978Z,46.70
2019-03-27T12:00:09.905Z,46.50
2019-03-27T12:02:45.523Z,47.00
2019-03-27T12:05:20.857Z,46.50
2019-03-27T12:07:58.285Z,46.10
2019-03-27T12:10:33.292Z,46.70
2019-03-27T12:13:08.076Z,46.70
2019-03-27T12:15:44.755Z,46.70
2019-03-27T12:18:21.690Z,46.60
2019-03-27T12:21:08.934Z,47.30
2019-03-27T12:23:47.933Z,47.60
2019-03-27T12:26:24.297Z,47.40
2019-03-27T12:28:59.929Z,48.20
2019-03-27T12:31:38.931Z,47.40
2019-03-27T12:34:14.578Z,47.40
2019-03-27T12:36:52.938Z,47.50
2019-03-27T12:39:31.137Z,47.50
2019-03-27T12:42:07.804Z,47.90
2019-03-27T12:44:55.540Z,47.30
2019-03-27T12:47:35.730Z,47.70
2019-03-27T12:50:14.119Z,46.70
2019-03-27T12:52:53.695Z,46.70
2019-03-27T12:55:39.055Z,46.60
2019-03-27T12:58:13.476Z,47.20
2019-03-27T13:00:58.972Z,46.90
2019-03-27T13:03:44.543Z,46.80
2019-03-27T13:06:25.444Z,46.60
2019-03-27T13:09:05.991Z,46.30
2019-03-27T13:11:41.619Z,47.10
2019-03-27T13:14:16.174Z,46.30
2019-03-27T13:16:52.901Z,46.70
2019-03-27T13:19:31.771Z,47.30
2019-03-27T13:22:07.207Z,47.00
2019-03-27T13:24:55.444Z,46.70
2019-03-27T13:27:33.385Z,47.00
2019-03-27T13:30:08.941Z,46.70
2019-03-27T13:32:47.320Z,47.10
2019-03-27T13:35:23.097Z,47.10
2019-03-27T13:38:03.918Z,47.00
2019-03-27T13:40:41.342Z,46.90
2019-03-27T13:43:17.433Z,47.20
2019-03-27T13:45:54.183Z,47.10
2019-03-27T13:48:30.560Z,48.20
2019-03-27T13:51:05.709Z,48.70
2019-03-27T13:53:40.094Z,49.90
2019-03-27T13:56:17.533Z,53.30
2019-03-27T13:58:52.630Z,56.10
2019-03-27T14:01:28.185Z,55.50
2019-03-27T14:04:03.218Z,59.80
2019-03-27T14:06:40.231Z,60.50
2019-03-27T14:09:19.764Z,63.70
2019-03-27T14:11:55.582Z,64.30
2019-03-27T14:14:32.493Z,64.00
2019-03-27T14:17:10.887Z,62.80
2019-03-27T14:19:48.050Z,63.80
2019-03-27T14:22:26.374Z,63.30
2019-03-27T14:25:04.690Z,61.60
2019-03-27T14:27:40.188Z,61.10
2019-03-27T14:30:18.217Z,58.60
2019-03-27T14:32:53.864Z,59.50
2019-03-27T14:35:42.673Z,58.20
2019-03-27T14:38:42.215Z,56.30
2019-03-27T14:41:18.486Z,56.70
2019-03-27T14:43:55.311Z,55.50
2019-03-27T14:46:30.779Z,55.10
2019-03-27T14:49:15.997Z,54.80
2019-03-27T14:51:50.663Z,55.30
2019-03-27T14:54:27.877Z,54.80
2019-03-27T14:57:06.747Z,53.60
2019-03-27T14:59:44.629Z,54.20
2019-03-27T15:02:34.918Z,54.20
2019-03-27T15:05:21.052Z,53.40
2019-03-27T15:07:57.503Z,53.60
2019-03-27T15:10:32.558Z,54.70
2019-03-27T15:13:08.214Z,54.90
2019-03-27T15:15:45.226Z,54.60
2019-03-27T15:18:25.855Z,54.80
2019-03-27T15:21:01.446Z,54.40
2019-03-27T15:23:38.171Z,53.70
2019-03-27T15:26:17.245Z,53.80
2019-03-27T15:28:52.239Z,51.10
2019-03-27T15:31:29.621Z,52.20
2019-03-27T15:34:03.812Z,50.60
2019-03-27T15:36:40.219Z,50.00
2019-03-27T15:39:16.607Z,50.90
2019-03-27T15:41:53.425Z,50.80
2019-03-27T15:44:34.599Z,50.40
2019-03-27T15:47:17.727Z,50.90
2019-03-27T15:49:59.783Z,52.10
2019-03-27T15:52:36.715Z,52.50
2019-03-27T15:55:11.943Z,52.30
2019-03-27T15:57:49.455Z,52.60
2019-03-27T16:00:26.690Z,53.60
2019-03-27T16:03:03.829Z,53.60
2019-03-27T16:05:41.152Z,54.40
2019-03-27T16:08:16.461Z,54.00
2019-03-27T16:10:51.599Z,54.60
2019-03-27T16:13:43.018Z,54.60
2019-03-27T16:16:17.331Z,54.30
2019-03-27T16:18:53.523Z,54.60
2019-03-27T16:21:30.473Z,54.70
2019-03-27T16:24:23.102Z,55.00
2019-03-27T16:27:04.723Z,55.40
2019-03-27T16:29:39.333Z,56.80
2019-03-27T16:32:14.360Z,58.60
2019-03-27T16:34:55.784Z,59.70
2019-03-27T16:37:36.502Z,60.70
2019-03-27T16:40:14.946Z,61.70
2019-03-27T16:42:52.060Z,62.90
2019-03-27T16:45:26.785Z,63.80
2019-03-27T16:48:02.304Z,64.50
2019-03-27T16:50:37.720Z,65.30
2019-03-27T16:53:13.376Z,66.00
2019-03-27T16:55:48.568Z,66.50
2019-03-27T16:58:23.632Z,67.40
2019-03-27T17:00:58.357Z,67.60
2019-03-27T17:03:35.118Z,68.20
2019-03-27T17:06:13.609Z,68.50
2019-03-27T17:08:49.566Z,69.00
2019-03-27T17:11:31.285Z,69.50
2019-03-27T17:14:06.192Z,69.80
2019-03-27T17:16:42.411Z,69.70
2019-03-27T17:19:17.803Z,69.70
2019-03-27T17:21:57.425Z,69.70
2019-03-27T17:24:36.053Z,69.40
2019-03-27T17:27:13.765Z,69.10
2019-03-27T17:29:49.370Z,69.10
2019-03-27T17:32:25.073Z,69.50
2019-03-27T17:35:00.655Z,69.10
2019-03-27T17:37:38.413Z,69.10
2019-03-27T17:40:16.066Z,68.60
2019-03-27T17:42:53.099Z,68.50
2019-03-27T17:45:30.027Z,68.80
2019-03-27T17:48:06.563Z,69.10
2019-03-27T17:50:41.568Z,68.70
2019-03-27T17:53:30.715Z,69.10
2019-03-27T17:55:55.299Z,68.80
2019-03-27T17:58:31.808Z,69.00
2019-03-27T18:01:09.215Z,69.20
2019-03-27T18:03:44.146Z,69.40
2019-03-27T18:06:18.960Z,68.70
2019-03-27T18:08:53.604Z,68.70
2019-03-27T18:11:31.300Z,69.00
2019-03-27T18:14:06.080Z,69.00
2019-03-27T18:16:40.646Z,69.40
2019-03-27T18:19:15.903Z,69.10
2019-03-27T18:21:50.878Z,70.00
2019-03-27T18:24:27.442Z,69.80
2019-03-27T18:27:08.033Z,69.80
2019-03-27T18:29:48.647Z,70.10
2019-03-27T18:32:24.061Z,70.40
2019-03-27T18:34:59.781Z,70.40
2019-03-27T18:37:34.955Z,70.80
2019-03-27T18:40:11.254Z,70.80
2019-03-27T18:42:46.785Z,70.70
2019-03-27T18:45:23.515Z,70.30
2019-03-27T18:48:00.922Z,70.60
2019-03-27T18:50:36.907Z,71.00
2019-03-27T18:53:15.518Z,71.20
2019-03-27T18:55:54.234Z,71.20
2019-03-27T18:58:30.417Z,72.00
2019-03-27T19:01:08.851Z,72.50
2019-03-27T19:03:44.666Z,73.70
2019-03-27T19:06:19.826Z,74.70
2019-03-27T19:08:57.501Z,75.90
2019-03-27T19:11:34.892Z,75.90
2019-03-27T19:14:28.242Z,76.00
2019-03-27T19:17:07.039Z,76.40
2019-03-27T19:19:44.761Z,76.80
2019-03-27T19:22:21.624Z,76.80
2019-03-27T19:24:59.929Z,77.10
2019-03-27T19:27:36.779Z,77.30
2019-03-27T19:30:13.691Z,77.80
2019-03-27T19:32:50.926Z,77.70
2019-03-27T19:35:26.912Z,78.10
2019-03-27T19:38:03.286Z,78.60
2019-03-27T19:40:37.643Z,78.80
2019-03-27T19:43:13.280Z,79.10
2019-03-27T19:45:52.483Z,78.90
2019-03-27T19:48:28.111Z,79.40
2019-03-27T19:51:04.558Z,79.50
2019-03-27T19:53:41.285Z,79.20
2019-03-27T19:56:15.873Z,79.40
2019-03-27T19:58:52.714Z,79.20
2019-03-27T20:01:28.598Z,79.00
2019-03-27T20:04:04.295Z,79.50
2019-03-27T20:06:38.953Z,80.00
2019-03-27T20:09:14.057Z,80.40
2019-03-27T20:11:51.589Z,80.40
2019-03-27T20:14:27.843Z,80.30
2019-03-27T20:17:03.086Z,80.40
2019-03-27T20:19:39.909Z,80.30
2019-03-27T20:22:20.031Z,80.00
2019-03-27T20:24:56.866Z,80.30
2019-03-27T20:27:40.503Z,80.20
2019-03-27T20:30:18.692Z,81.00
2019-03-27T20:32:55.981Z,81.40
2019-03-27T20:35:32.142Z,81.20
2019-03-27T20:38:09.252Z,81.30
2019-03-27T20:40:45.103Z,81.20
2019-03-27T20:43:20.507Z,80.60
2019-03-27T20:45:57.917Z,81.30
2019-03-27T20:48:52.897Z,81.40
2019-03-27T20:51:30.493Z,81.60
2019-03-27T20:54:05.104Z,82.80
2019-03-27T20:56:42.163Z,83.90
2019-03-27T20:59:18.472Z,83.80
2019-03-27T21:01:54.500Z,84.10
2019-03-27T21:04:32.668Z,83.70
2019-03-27T21:07:07.685Z,83.50
2019-03-27T21:09:42.863Z,83.90
2019-03-27T21:12:17.453Z,82.50
2019-03-27T21:14:52.742Z,83.30
2019-03-27T21:17:30.604Z,84.10
2019-03-27T21:20:06.708Z,84.20
2019-03-27T21:22:48.283Z,82.50
2019-03-27T21:25:26.650Z,83.50
2019-03-27T21:28:01.878Z,84.10
2019-03-27T21:30:38.970Z,85.00
2019-03-27T21:33:14.273Z,84.70
2019-03-27T21:35:48.671Z,84.30
2019-03-27T21:38:27.815Z,83.90
2019-03-27T21:41:04.642Z,84.10
2019-03-27T21:43:45.385Z,83.70
2019-03-27T21:46:20.642Z,82.60
2019-03-27T21:48:56.277Z,81.00
2019-03-27T21:51:35.603Z,81.30
2019-03-27T21:54:10.328Z,81.00
2019-03-27T21:56:45.171Z,80.80
2019-03-27T21:59:19.626Z,81.20
2019-03-27T22:01:56.601Z,81.60
2019-03-27T22:04:32.255Z,82.00
2019-03-27T22:07:11.765Z,84.30
2019-03-27T22:09:48.304Z,85.50
2019-03-27T22:12:23.748Z,86.00
2019-03-27T22:15:06.259Z,86.30
2019-03-27T22:17:42.415Z,86.20
2019-03-27T22:20:17.428Z,87.00
2019-03-27T22:22:51.778Z,87.90
2019-03-27T22:25:35.842Z,88.40
2019-03-27T22:28:10.286Z,88.50
2019-03-27T22:30:45.476Z,89.00
2019-03-27T22:33:20.697Z,89.60
2019-03-27T22:35:58.171Z,89.70
2019-03-27T22:38:33.437Z,90.10
2019-03-27T22:41:08.735Z,90.00
2019-03-27T22:43:44.638Z,90.30
2019-03-27T22:46:21.907Z,90.20
2019-03-27T22:48:59.064Z,89.80
2019-03-27T22:51:34.410Z,89.30
2019-03-27T22:54:14.209Z,89.80
2019-03-27T22:56:48.829Z,90.10
2019-03-27T22:59:24.950Z,89.70
2019-03-27T23:02:01.303Z,89.80
2019-03-27T23:04:36.872Z,88.70
2019-03-27T23:07:11.510Z,89.40
2019-03-27T23:09:47.089Z,89.50
2019-03-27T23:12:22.684Z,89.60
2019-03-27T23:14:57.984Z,89.50
2019-03-27T23:17:32.628Z,89.60
2019-03-27T23:20:08.551Z,89.90
2019-03-27T23:22:44.882Z,89.70
2019-03-27T23:25:20.110Z,89.60
2019-03-27T23:27:55.914Z,88.20
2019-03-27T23:30:32.881Z,87.60
2019-03-27T23:33:08.325Z,87.80
2019-03-27T23:35:45.867Z,88.40
2019-03-27T23:38:24.317Z,87.40
2019-03-27T23:40:59.604Z,86.20
2019-03-27T23:43:36.184Z,84.70
2019-03-27T23:46:10.953Z,84.10
2019-03-27T23:48:47.137Z,84.90
2019-03-27T23:51:24.163Z,85.20
2019-03-27T23:53:59.949Z,84.70
2019-03-27T23:56:40.016Z,83.50
2019-03-27T23:59:16.727Z,82.40
